createdAt,value
2023-03-22T00:02:01.022Z,13.46
2023-03-22T00:07:41.472Z,13.35
2023-03-22T00:10:18.108Z,13.41
2023-03-22T00:15:36.952Z,13.42
2023-03-22T00:18:19.253Z,13.42
2023-03-22T00:24:15.094Z,13.39
2023-03-22T00:26:49.419Z,13.64
2023-03-22T00:29:19.324Z,13.69
2023-03-22T00:31:48.182Z,13.55
2023-03-22T00:34:36.768Z,13.70
2023-03-22T00:37:26.889Z,13.63
2023-03-22T00:40:18.270Z,13.73
2023-03-22T00:42:50.930Z,13.55
2023-03-22T00:45:38.403Z,13.38
2023-03-22T00:48:25.928Z,13.38
2023-03-22T00:50:58.925Z,13.38
2023-03-22T00:53:26.258Z,13.35
2023-03-22T00:55:54.192Z,13.08
2023-03-22T00:58:21.362Z,13.19
2023-03-22T01:00:48.258Z,13.07
2023-03-22T01:03:14.984Z,12.99
2023-03-22T01:05:42.109Z,12.90
2023-03-22T01:08:10.257Z,12.89
2023-03-22T01:10:38.592Z,12.87
2023-03-22T01:13:06.256Z,12.84
2023-03-22T01:15:32.942Z,12.84
2023-03-22T01:17:59.596Z,12.75
2023-03-22T01:20:27.041Z,12.75
2023-03-22T01:22:53.722Z,12.89
2023-03-22T01:25:21.798Z,12.89
2023-03-22T01:27:48.417Z,12.80
2023-03-22T01:30:14.960Z,12.77
2023-03-22T01:32:41.748Z,12.76
2023-03-22T01:35:09.241Z,12.66
2023-03-22T01:37:36.158Z,12.48
2023-03-22T01:40:02.838Z,12.39
2023-03-22T01:42:30.954Z,12.45
2023-03-22T01:45:37.541Z,12.34
2023-03-22T01:48:13.323Z,12.18
2023-03-22T01:50:42.493Z,12.09
2023-03-22T01:53:12.620Z,11.99
2023-03-22T01:55:39.815Z,11.95
2023-03-22T01:58:08.060Z,11.80
2023-03-22T02:00:34.605Z,11.82
2023-03-22T02:03:01.445Z,11.85
2023-03-22T02:05:31.028Z,11.82
2023-03-22T02:07:57.666Z,11.70
2023-03-22T02:10:27.288Z,11.62
2023-03-22T02:13:12.861Z,11.58
2023-03-22T02:15:43.586Z,11.54
2023-03-22T02:18:26.214Z,11.63
2023-03-22T02:21:28.139Z,11.52
2023-03-22T02:24:34.063Z,11.29
2023-03-22T02:27:22.624Z,11.44
2023-03-22T02:30:00.816Z,11.28
2023-03-22T02:33:00.129Z,11.27
2023-03-22T02:36:00.096Z,11.32
2023-03-22T02:39:05.174Z,11.46
2023-03-22T02:41:44.041Z,11.67
2023-03-22T02:44:22.489Z,11.57
2023-03-22T02:46:56.533Z,11.42
2023-03-22T02:49:33.056Z,11.41
2023-03-22T02:52:07.051Z,11.45
2023-03-22T02:54:43.330Z,11.15
2023-03-22T02:57:16.873Z,11.17
2023-03-22T02:59:44.945Z,11.18
2023-03-22T03:02:15.191Z,11.25
2023-03-22T03:04:46.288Z,11.24
2023-03-22T03:07:17.097Z,11.15
2023-03-22T03:09:45.549Z,11.02
2023-03-22T03:12:18.310Z,10.93
2023-03-22T03:14:45.042Z,11.03
2023-03-22T03:17:22.779Z,11.05
2023-03-22T03:20:00.306Z,11.04
2023-03-22T03:22:40.448Z,10.92
2023-03-22T03:25:15.599Z,11.03
2023-03-22T03:27:48.870Z,10.80
2023-03-22T03:30:19.701Z,11.13
2023-03-22T03:32:50.280Z,11.01
2023-03-22T03:35:21.875Z,10.89
2023-03-22T03:37:51.256Z,10.91
2023-03-22T03:40:23.461Z,10.82
2023-03-22T03:42:53.525Z,11.00
2023-03-22T03:45:20.587Z,10.82
2023-03-22T03:47:49.143Z,10.91
2023-03-22T03:50:16.505Z,10.90
2023-03-22T03:52:43.363Z,10.92
2023-03-22T03:55:10.347Z,10.94
2023-03-22T03:57:38.269Z,10.79
2023-03-22T04:00:06.302Z,10.70
2023-03-22T04:02:32.898Z,10.57
2023-03-22T04:04:59.595Z,10.76
2023-03-22T04:07:26.256Z,10.78
2023-03-22T04:09:52.793Z,10.86
2023-03-22T04:12:19.505Z,10.90
2023-03-22T04:14:47.398Z,10.87
2023-03-22T04:17:14.015Z,10.84
2023-03-22T04:19:40.878Z,10.90
2023-03-22T04:22:07.689Z,10.81
2023-03-22T04:24:34.283Z,10.87
2023-03-22T04:27:00.842Z,10.92
2023-03-22T04:29:27.822Z,10.92
2023-03-22T04:31:55.699Z,10.96
2023-03-22T04:34:22.312Z,11.02
2023-03-22T04:36:48.874Z,11.12
2023-03-22T04:39:15.471Z,11.17
2023-03-22T04:41:42.105Z,11.23
2023-03-22T04:44:08.887Z,11.21
2023-03-22T04:46:36.690Z,10.90
2023-03-22T04:49:05.368Z,10.75
2023-03-22T04:51:32.208Z,10.68
2023-03-22T04:53:59.180Z,10.75
2023-03-22T04:56:25.855Z,10.76
2023-03-22T04:58:52.414Z,10.67
2023-03-22T05:01:18.960Z,10.77
2023-03-22T05:03:45.709Z,10.72
2023-03-22T05:06:14.338Z,10.81
2023-03-22T05:08:41.438Z,10.81
2023-03-22T05:11:10.379Z,10.75
2023-03-22T05:13:37.243Z,11.03
2023-03-22T05:16:04.674Z,11.25
2023-03-22T05:18:31.757Z,11.30
2023-03-22T05:20:59.808Z,11.23
2023-03-22T05:23:27.894Z,11.27
2023-03-22T05:25:54.500Z,11.44
2023-03-22T05:28:21.524Z,11.50
2023-03-22T05:30:49.533Z,11.36
2023-03-22T05:33:16.226Z,11.42
2023-03-22T05:35:43.174Z,11.50
2023-03-22T05:38:11.843Z,11.76
2023-03-22T05:40:40.162Z,11.75
2023-03-22T05:43:06.930Z,12.10
2023-03-22T05:45:36.430Z,11.82
2023-03-22T05:48:03.166Z,11.89
2023-03-22T05:50:29.767Z,12.06
2023-03-22T05:52:56.343Z,12.31
2023-03-22T05:55:23.126Z,12.03
2023-03-22T05:57:51.144Z,12.35
2023-03-22T06:00:19.221Z,12.45
2023-03-22T06:02:48.187Z,12.53
2023-03-22T06:05:16.509Z,12.39
2023-03-22T06:07:43.564Z,12.46
2023-03-22T06:10:12.908Z,12.68
2023-03-22T06:12:40.296Z,12.52
2023-03-22T06:15:19.438Z,12.78
2023-03-22T06:17:46.112Z,12.83
2023-03-22T06:20:15.730Z,12.72
2023-03-22T06:22:46.164Z,12.69
2023-03-22T06:25:13.924Z,12.32
2023-03-22T06:27:40.478Z,12.69
2023-03-22T06:30:21.530Z,12.49
2023-03-22T06:32:48.039Z,12.33
2023-03-22T06:35:25.041Z,12.48
2023-03-22T06:38:03.807Z,12.69
2023-03-22T06:40:36.433Z,12.67
2023-03-22T06:43:06.381Z,12.89
2023-03-22T06:46:08.538Z,13.14
2023-03-22T06:49:11.155Z,13.04
2023-03-22T06:51:48.972Z,13.34
2023-03-22T06:54:35.694Z,13.40
2023-03-22T06:57:05.873Z,13.52
2023-03-22T06:59:43.108Z,13.98
2023-03-22T07:02:53.246Z,13.95
2023-03-22T07:05:35.905Z,13.80
2023-03-22T07:08:50.809Z,13.68
2023-03-22T07:15:08.735Z,13.88
2023-03-22T07:53:54.649Z,16.69
2023-03-22T07:56:21.282Z,16.59
2023-03-22T08:00:02.321Z,16.07
2023-03-22T08:02:42.384Z,16.11
2023-03-22T08:05:18.545Z,16.29
2023-03-22T08:07:45.168Z,16.47
2023-03-22T08:10:13.229Z,16.46
2023-03-22T08:12:39.861Z,16.06
2023-03-22T08:15:07.999Z,16.22
2023-03-22T08:17:34.757Z,16.17
2023-03-22T08:20:01.741Z,15.71
2023-03-22T08:22:28.425Z,15.89
2023-03-22T08:24:55.459Z,16.11
2023-03-22T08:27:23.551Z,16.08
2023-03-22T08:29:50.124Z,16.24
2023-03-22T08:32:17.855Z,16.63
2023-03-22T08:34:44.856Z,16.60
2023-03-22T08:37:12.524Z,16.65
2023-03-22T08:39:39.203Z,16.56
2023-03-22T08:42:06.044Z,16.43
2023-03-22T08:44:34.013Z,16.52
2023-03-22T08:47:02.179Z,16.91
2023-03-22T08:49:29.528Z,16.79
2023-03-22T08:51:56.283Z,17.05
2023-03-22T08:54:22.876Z,17.28
2023-03-22T08:56:49.604Z,17.35
2023-03-22T09:06:38.568Z,17.41
2023-03-22T09:09:06.653Z,17.70
2023-03-22T09:11:33.213Z,17.62
2023-03-22T09:15:23.805Z,18.00
2023-03-22T09:17:50.609Z,17.48
2023-03-22T09:20:17.244Z,17.85
2023-03-22T09:22:43.959Z,17.86
2023-03-22T09:25:12.957Z,18.05
2023-03-22T09:27:39.941Z,18.12
2023-03-22T09:30:07.701Z,17.84
2023-03-22T09:32:34.621Z,18.03
2023-03-22T09:35:01.517Z,17.90
2023-03-22T09:37:28.064Z,18.05
2023-03-22T09:39:54.651Z,17.61
2023-03-22T09:42:31.262Z,17.90
2023-03-22T09:45:00.571Z,17.95
2023-03-22T09:47:44.208Z,18.19
2023-03-22T09:50:13.813Z,17.85
2023-03-22T09:52:40.761Z,17.71
2023-03-22T09:55:22.690Z,17.73
2023-03-22T09:57:58.680Z,17.66
2023-03-22T10:00:33.512Z,17.47
2023-03-22T10:03:12.294Z,18.40
2023-03-22T10:05:43.535Z,18.43
2023-03-22T10:17:00.509Z,18.56
2023-03-22T10:50:30.052Z,19.14
2023-03-22T10:53:03.053Z,19.06
2023-03-22T10:55:30.358Z,18.27
2023-03-22T10:58:10.704Z,18.47
2023-03-22T11:00:41.220Z,18.75
2023-03-22T11:03:08.943Z,18.97
2023-03-22T11:05:37.118Z,18.89
2023-03-22T11:08:04.188Z,18.40
2023-03-22T11:10:32.160Z,18.31
2023-03-22T11:13:16.752Z,18.82
2023-03-22T11:15:51.596Z,19.12
2023-03-22T11:18:19.413Z,18.96
2023-03-22T11:20:59.162Z,19.28
2023-03-22T11:23:26.559Z,18.44
2023-03-22T11:25:56.928Z,18.24
2023-03-22T11:28:28.076Z,17.97
2023-03-22T11:31:00.889Z,18.39
2023-03-22T11:33:28.073Z,18.65
2023-03-22T11:35:57.634Z,18.47
2023-03-22T11:38:29.171Z,18.27
2023-03-22T11:40:59.026Z,17.93
2023-03-22T11:43:27.939Z,17.84
2023-03-22T11:45:57.868Z,17.73
2023-03-22T11:48:29.985Z,17.26
2023-03-22T11:51:03.964Z,17.53
2023-03-22T11:53:33.870Z,18.07
2023-03-22T11:56:03.013Z,18.51
2023-03-22T11:58:44.700Z,18.27
2023-03-22T12:01:16.703Z,18.65
2023-03-22T12:03:49.054Z,18.40
2023-03-22T12:09:07.709Z,17.90
2023-03-22T12:11:39.233Z,17.58
2023-03-22T12:14:12.282Z,17.80
2023-03-22T12:16:46.529Z,17.54
2023-03-22T12:19:22.590Z,17.46
2023-03-22T12:21:52.011Z,17.83
2023-03-22T12:24:32.080Z,18.23
2023-03-22T12:27:15.205Z,18.17
2023-03-22T12:30:02.401Z,18.22
2023-03-22T12:33:02.577Z,17.67
2023-03-22T12:35:35.806Z,17.70
2023-03-22T12:38:42.195Z,17.62
2023-03-22T12:41:32.980Z,17.37
2023-03-22T12:44:06.648Z,17.22
2023-03-22T12:46:40.021Z,17.30
2023-03-22T12:49:18.085Z,17.06
2023-03-22T12:51:46.763Z,17.07
2023-03-22T12:54:16.923Z,16.87
2023-03-22T12:56:48.070Z,16.93
2023-03-22T12:59:18.454Z,16.83
2023-03-22T13:01:47.526Z,16.78
2023-03-22T13:04:31.970Z,16.59
2023-03-22T13:07:10.351Z,16.54
2023-03-22T13:09:41.335Z,16.51
2023-03-22T13:12:30.000Z,16.26
2023-03-22T13:15:04.201Z,16.35
2023-03-22T13:17:45.297Z,16.45
2023-03-22T13:20:26.445Z,16.61
2023-03-22T13:23:22.165Z,16.33
2023-03-22T13:26:01.757Z,16.16
2023-03-22T13:28:29.984Z,16.12
2023-03-22T13:30:58.955Z,16.14
2023-03-22T13:33:28.545Z,16.21
2023-03-22T13:35:57.671Z,16.42
2023-03-22T13:38:28.954Z,16.05
2023-03-22T13:41:09.033Z,16.13
2023-03-22T13:43:43.978Z,16.14
2023-03-22T13:46:32.555Z,16.11
2023-03-22T13:49:32.857Z,16.00
2023-03-22T13:52:02.100Z,16.17
2023-03-22T13:54:36.221Z,16.02
2023-03-22T13:57:04.366Z,16.25
2023-03-22T13:59:56.997Z,16.52
2023-03-22T14:02:34.431Z,16.59
2023-03-22T14:05:07.324Z,16.70
2023-03-22T14:07:41.805Z,16.57
2023-03-22T14:10:14.455Z,16.49
2023-03-22T14:12:51.418Z,16.51
2023-03-22T14:15:21.515Z,16.57
2023-03-22T14:17:52.486Z,16.89
2023-03-22T14:20:22.697Z,16.82
